Alstonville, New South Wales

6:34 PM EST on August 02, 2014 (GMT +1000)
INSWMCLE1 Elev 410 ft | 28.79 °S, 153.40 °E | Change Station

Current weather conditions updated 5 minutes ago

Clear
Clear
50.9 °F
Feels Like 50.9 °F
N
0.0
Wind Variable Wind from North
Gusts 2.7 mph

Tomorrow is forecast to be Cooler than today. Showers possible.

Today
High -- | Low -- °F
--% Chance of Precip.
Yesterday
High -- | Low -- °F
Precip. -- in
6:29 AM 5:15 PM
Waxing Crescent, 33% visible
Pressure 30.27 in
Visibility 6.2 miles
Clouds
Dew Point 26 °F
Humidity 37%
Rainfall -999.00 in
Snow Depth Not available.
UV Not available.
Pollen Not available.
Air Quality Not available.
Flu Activity Not available.
METAR YLIS 020800Z AUTO 18005KT 9999 // NCD 11/01 Q1025

More Conditions Fewer Conditions

Pressure 30.27 in
Visibility 6.2 miles
Clouds
Dew Point 26 °F
Humidity 37%
Rainfall -999.00 in
Snow Depth Not available.
UV Not available.
Pollen Not available.
Air Quality Not available.
Flu Activity Not available.
METAR YLIS 020800Z AUTO 18005KT 9999 // NCD 11/01 Q1025

More Conditions Fewer Conditions

10-Day Weather Forecast

Almanac

Astronomy

Aug. 02, 2014 Rise Set
Actual Time 6:29 AM EST 5:15 PM EST
Civil Twilight 6:04 AM EST 5:40 PM EST
Nautical Twilight 5:36 AM EST 6:09 PM EST
Astronomical Twilight 5:08 AM EST 6:37 PM EST
Moon 9:48 AM EST 10:45 PM EST
Length of Visible Light 11h 36m
Length of Day
10h 46m
Tomorrow will be 1m 14s longer.
Waxing Crescent, 33% of the Moon is Illuminated
Today
Waxing Crescent
Aug 3
First Quarter
Aug 10
Full
Aug 17
Last Quarter
Aug 25
New

Yesterday's Extremes

Country Highs Country Lows

Community

WunderPhotos

Upload Photos

1,739,844 photos uploaded!

Nearby

Snow Depth

Not available.

Earthquake Activity

City Distance Mag. Time & Date
No recent earthquake activity has been reported nearby.
Minimum magnitude displayed is 2.5.

Coastal Water Temperatures

Place Temperature
No Stations Reporting

Nearby Weather Stations

Station Location Temp. Dew Point Humidity Wind Precip. Elev Updated Type
McLeans Ridges 50.9 °F 26 °F 37% North  at  0.0 mph 0.00 in / hr 410 ft 6:29 PM EST Normal
Ballina, Ballina 60.3 °F 39 °F 46% South  at  19.0 mph 0.00 in / hr 20 ft 6:34 PM EST Rapid Fire
Broadwater 66.6 °F 39 °F 36% SSE  at  7.3 mph 0.00 in / hr 6 ft 3:30 PM EST Normal
Newrybar, Newrybar 53.5 °F 38 °F 55% SSW  at  4.0 mph 0.00 in / hr 489 ft 6:30 PM EST Normal

Show More Stations Show Fewer Stations